sensor_id;sensor_type;location;lat;lon;timestamp;pressure;altitude;pressure_sealevel;temperature;humidity
63306;BME280;50735;52.060;1.248;2024-01-15T00:00:44;100545.23;;;-0.53;55.07
63306;BME280;50735;52.060;1.248;2024-01-15T00:03:16;100538.95;;;-0.57;55.50
63306;BME280;50735;52.060;1.248;2024-01-15T00:05:48;100537.10;;;-0.33;55.77
63306;BME280;50735;52.060;1.248;2024-01-15T00:08:20;100540.32;;;-0.47;55.79
63306;BME280;50735;52.060;1.248;2024-01-15T00:10:52;100533.28;;;-0.30;55.40
63306;BME280;50735;52.060;1.248;2024-01-15T00:13:24;100532.60;;;-0.28;55.51
63306;BME280;50735;52.060;1.248;2024-01-15T00:15:56;100529.01;;;-0.30;55.37
63306;BME280;50735;52.060;1.248;2024-01-15T00:18:28;100526.91;;;-0.32;55.09
63306;BME280;50735;52.060;1.248;2024-01-15T00:21:00;100521.72;;;-0.49;55.34
63306;BME280;50735;52.060;1.248;2024-01-15T00:23:32;100521.98;;;-0.39;55.54
63306;BME280;50735;52.060;1.248;2024-01-15T00:26:04;100518.63;;;-0.57;55.35
63306;BME280;50735;52.060;1.248;2024-01-15T00:28:36;100518.36;;;-0.46;55.09
63306;BME280;50735;52.060;1.248;2024-01-15T00:31:08;100519.23;;;-0.76;55.07
63306;BME280;50735;52.060;1.248;2024-01-15T00:33:40;100515.56;;;-0.59;55.01
63306;BME280;50735;52.060;1.248;2024-01-15T00:36:12;100514.67;;;-0.77;55.19
63306;BME280;50735;52.060;1.248;2024-01-15T00:38:44;100511.39;;;-0.58;54.55
63306;BME280;50735;52.060;1.248;2024-01-15T00:41:17;100507.46;;;-0.68;55.10
63306;BME280;50735;52.060;1.248;2024-01-15T00:43:48;100509.64;;;-0.74;54.81
63306;BME280;50735;52.060;1.248;2024-01-15T00:46:20;100512.50;;;-0.78;55.17
63306;BME280;50735;52.060;1.248;2024-01-15T00:48:52;100508.93;;;-0.87;55.15
63306;BME280;50735;52.060;1.248;2024-01-15T00:51:24;100510.44;;;-1.02;55.75
63306;BME280;50735;52.060;1.248;2024-01-15T00:53:56;100512.13;;;-1.01;55.07
63306;BME280;50735;52.060;1.248;2024-01-15T00:56:28;100511.74;;;-0.91;55.28
63306;BME280;50735;52.060;1.248;2024-01-15T00:59:00;100506.95;;;-1.00;55.77
63306;BME280;50735;52.060;1.248;2024-01-15T01:01:32;100505.87;;;-1.19;55.54
63306;BME280;50735;52.060;1.248;2024-01-15T01:04:04;100496.67;;;-1.10;55.64
63306;BME280;50735;52.060;1.248;2024-01-15T01:06:36;100495.11;;;-1.22;55.79
63306;BME280;50735;52.060;1.248;2024-01-15T01:09:08;100491.86;;;-1.26;56.12
63306;BME280;50735;52.060;1.248;2024-01-15T01:11:40;100490.40;;;-1.15;56.02
63306;BME280;50735;52.060;1.248;2024-01-15T01:14:12;100488.94;;;-1.30;55.88
63306;BME280;50735;52.060;1.248;2024-01-15T01:16:44;100486.31;;;-1.11;56.12
63306;BME280;50735;52.060;1.248;2024-01-15T01:19:16;100484.67;;;-1.52;55.99
63306;BME280;50735;52.060;1.248;2024-01-15T01:21:49;100479.85;;;-1.22;55.88
63306;BME280;50735;52.060;1.248;2024-01-15T01:24:20;100478.39;;;-1.31;56.54
63306;BME280;50735;52.060;1.248;2024-01-15T01:26:52;100471.45;;;-1.32;56.02
63306;BME280;50735;52.060;1.248;2024-01-15T01:29:24;100466.87;;;-1.41;56.05
63306;BME280;50735;52.060;1.248;2024-01-15T01:31:57;100467.24;;;-1.50;56.45
63306;BME280;50735;52.060;1.248;2024-01-15T01:34:29;100465.73;;;-1.53;56.50
63306;BME280;50735;52.060;1.248;2024-01-15T01:37:01;100465.22;;;-1.72;56.68
63306;BME280;50735;52.060;1.248;2024-01-15T01:39:33;100460.40;;;-1.55;56.47
63306;BME280;50735;52.060;1.248;2024-01-15T01:42:05;100458.32;;;-1.67;56.52
63306;BME280;50735;52.060;1.248;2024-01-15T01:44:38;100458.28;;;-1.72;56.72
63306;BME280;50735;52.060;1.248;2024-01-15T01:47:10;100460.86;;;-1.88;56.16
63306;BME280;50735;52.060;1.248;2024-01-15T01:49:42;100453.85;;;-1.79;56.62
63306;BME280;50735;52.060;1.248;2024-01-15T01:52:14;100452.71;;;-1.78;56.51
63306;BME280;50735;52.060;1.248;2024-01-15T01:54:47;100451.57;;;-1.79;56.48
63306;BME280;50735;52.060;1.248;2024-01-15T01:57:19;100449.96;;;-1.78;55.73
63306;BME280;50735;52.060;1.248;2024-01-15T01:59:52;100453.40;;;-1.85;56.00
63306;BME280;50735;52.060;1.248;2024-01-15T02:02:25;100450.97;;;-2.03;55.86
63306;BME280;50735;52.060;1.248;2024-01-15T02:04:57;100450.06;;;-1.95;56.04
63306;BME280;50735;52.060;1.248;2024-01-15T02:07:30;100451.01;;;-1.96;55.80
63306;BME280;50735;52.060;1.248;2024-01-15T02:10:03;100453.77;;;-1.96;55.69
63306;BME280;50735;52.060;1.248;2024-01-15T02:12:35;100453.64;;;-2.02;55.53
63306;BME280;50735;52.060;1.248;2024-01-15T02:15:07;100453.98;;;-2.08;55.52
63306;BME280;50735;52.060;1.248;2024-01-15T02:17:56;100454.25;;;-2.05;55.55
63306;BME280;50735;52.060;1.248;2024-01-15T02:20:28;100453.82;;;-1.99;55.69
63306;BME280;50735;52.060;1.248;2024-01-15T02:23:08;100452.47;;;-2.00;55.79
63306;BME280;50735;52.060;1.248;2024-01-15T02:25:42;100451.01;;;-2.02;55.73
63306;BME280;50735;52.060;1.248;2024-01-15T02:28:16;100452.20;;;-1.98;55.88
63306;BME280;50735;52.060;1.248;2024-01-15T02:30:48;100453.78;;;-1.93;55.84
63306;BME280;50735;52.060;1.248;2024-01-15T02:33:20;100452.63;;;-2.05;55.51
63306;BME280;50735;52.060;1.248;2024-01-15T02:35:52;100451.36;;;-2.43;55.84
63306;BME280;50735;52.060;1.248;2024-01-15T02:38:24;100455.24;;;-2.21;55.98
63306;BME280;50735;52.060;1.248;2024-01-15T02:40:57;100454.66;;;-2.33;56.23
63306;BME280;50735;52.060;1.248;2024-01-15T02:43:28;100452.83;;;-2.33;56.04
63306;BME280;50735;52.060;1.248;2024-01-15T02:46:00;100448.32;;;-2.48;56.25
63306;BME280;50735;52.060;1.248;2024-01-15T02:48:33;100442.70;;;-2.53;56.64
63306;BME280;50735;52.060;1.248;2024-01-15T02:51:05;100444.85;;;-2.66;56.61
63306;BME280;50735;52.060;1.248;2024-01-15T02:53:37;100443.20;;;-2.77;56.83
63306;BME280;50735;52.060;1.248;2024-01-15T02:56:09;100447.55;;;-2.70;56.59
63306;BME280;50735;52.060;1.248;2024-01-15T02:58:41;100441.17;;;-2.38;56.59
63306;BME280;50735;52.060;1.248;2024-01-15T03:01:13;100439.08;;;-2.53;56.42
63306;BME280;50735;52.060;1.248;2024-01-15T03:03:45;100435.96;;;-2.51;56.20
63306;BME280;50735;52.060;1.248;2024-01-15T03:06:17;100440.46;;;-2.23;56.08
63306;BME280;50735;52.060;1.248;2024-01-15T03:08:49;100440.78;;;-2.43;56.07
63306;BME280;50735;52.060;1.248;2024-01-15T03:11:21;100439.86;;;-2.42;55.86
63306;BME280;50735;52.060;1.248;2024-01-15T03:13:53;100439.23;;;-2.40;56.10
63306;BME280;50735;52.060;1.248;2024-01-15T03:16:25;100442.55;;;-2.41;55.97
63306;BME280;50735;52.060;1.248;2024-01-15T03:18:57;100440.70;;;-2.39;55.86
63306;BME280;50735;52.060;1.248;2024-01-15T03:21:29;100447.78;;;-2.59;55.74
63306;BME280;50735;52.060;1.248;2024-01-15T03:24:01;100445.60;;;-2.12;55.46
63306;BME280;50735;52.060;1.248;2024-01-15T03:26:33;100440.93;;;-2.57;56.22
63306;BME280;50735;52.060;1.248;2024-01-15T03:29:05;100442.39;;;-2.24;56.02
63306;BME280;50735;52.060;1.248;2024-01-15T03:31:37;100442.42;;;-2.52;55.63
63306;BME280;50735;52.060;1.248;2024-01-15T03:34:09;100440.81;;;-2.56;55.78
63306;BME280;50735;52.060;1.248;2024-01-15T03:36:41;100440.59;;;-2.76;56.60
63306;BME280;50735;52.060;1.248;2024-01-15T03:39:13;100437.11;;;-2.81;56.97
63306;BME280;50735;52.060;1.248;2024-01-15T03:41:45;100435.29;;;-2.67;56.56
63306;BME280;50735;52.060;1.248;2024-01-15T03:44:17;100433.48;;;-2.99;56.71
63306;BME280;50735;52.060;1.248;2024-01-15T03:46:50;100435.21;;;-2.98;57.22
63306;BME280;50735;52.060;1.248;2024-01-15T03:49:21;100431.07;;;-3.04;57.27
63306;BME280;50735;52.060;1.248;2024-01-15T03:51:53;100427.50;;;-3.01;57.14
63306;BME280;50735;52.060;1.248;2024-01-15T03:54:25;100423.04;;;-2.92;56.96
63306;BME280;50735;52.060;1.248;2024-01-15T03:56:58;100425.38;;;-2.62;56.77
63306;BME280;50735;52.060;1.248;2024-01-15T03:59:30;100421.73;;;-2.80;56.65
63306;BME280;50735;52.060;1.248;2024-01-15T04:02:02;100422.06;;;-3.06;56.67
63306;BME280;50735;52.060;1.248;2024-01-15T04:04:34;100420.21;;;-2.93;56.98
63306;BME280;50735;52.060;1.248;2024-01-15T04:07:05;100428.01;;;-2.83;56.57
63306;BME280;50735;52.060;1.248;2024-01-15T04:09:38;100422.47;;;-2.72;56.63
63306;BME280;50735;52.060;1.248;2024-01-15T04:12:10;100411.56;;;-2.71;56.91
63306;BME280;50735;52.060;1.248;2024-01-15T04:14:42;100405.92;;;-2.92;56.52
63306;BME280;50735;52.060;1.248;2024-01-15T04:17:14;100408.10;;;-2.84;56.42
63306;BME280;50735;52.060;1.248;2024-01-15T04:19:46;100409.14;;;-3.08;56.82
63306;BME280;50735;52.060;1.248;2024-01-15T04:22:18;100410.73;;;-3.01;56.76
63306;BME280;50735;52.060;1.248;2024-01-15T04:24:50;100413.19;;;-3.01;56.42
63306;BME280;50735;52.060;1.248;2024-01-15T04:27:22;100407.42;;;-3.03;56.60
63306;BME280;50735;52.060;1.248;2024-01-15T04:29:54;100408.04;;;-2.86;56.25
63306;BME280;50735;52.060;1.248;2024-01-15T04:32:26;100406.52;;;-3.03;56.41
63306;BME280;50735;52.060;1.248;2024-01-15T04:34:58;100404.38;;;-3.01;56.93
63306;BME280;50735;52.060;1.248;2024-01-15T04:37:30;100412.80;;;-3.26;56.59
63306;BME280;50735;52.060;1.248;2024-01-15T04:40:02;100415.69;;;-3.36;57.30
63306;BME280;50735;52.060;1.248;2024-01-15T04:42:34;100411.40;;;-3.03;57.08
63306;BME280;50735;52.060;1.248;2024-01-15T04:45:06;100415.09;;;-3.05;56.53
63306;BME280;50735;52.060;1.248;2024-01-15T04:47:39;100417.99;;;-3.10;57.02
63306;BME280;50735;52.060;1.248;2024-01-15T04:50:11;100414.20;;;-3.08;56.73
63306;BME280;50735;52.060;1.248;2024-01-15T04:52:43;100416.18;;;-3.05;56.45
63306;BME280;50735;52.060;1.248;2024-01-15T04:55:15;100413.75;;;-3.21;56.44
63306;BME280;50735;52.060;1.248;2024-01-15T04:57:47;100414.75;;;-2.94;56.26
63306;BME280;50735;52.060;1.248;2024-01-15T05:00:19;100411.95;;;-2.97;56.13
63306;BME280;50735;52.060;1.248;2024-01-15T05:02:51;100411.01;;;-3.00;56.05
63306;BME280;50735;52.060;1.248;2024-01-15T05:05:23;100406.23;;;-3.26;56.41
63306;BME280;50735;52.060;1.248;2024-01-15T05:07:55;100405.54;;;-2.87;56.60
63306;BME280;50735;52.060;1.248;2024-01-15T05:10:27;100403.96;;;-2.95;56.06
63306;BME280;50735;52.060;1.248;2024-01-15T05:12:59;100399.90;;;-3.11;56.36
63306;BME280;50735;52.060;1.248;2024-01-15T05:15:31;100399.34;;;-3.08;56.27
63306;BME280;50735;52.060;1.248;2024-01-15T05:18:04;100402.56;;;-3.47;56.48
63306;BME280;50735;52.060;1.248;2024-01-15T05:20:36;100402.62;;;-3.24;56.35
63306;BME280;50735;52.060;1.248;2024-01-15T05:23:08;100398.14;;;-3.29;56.60
63306;BME280;50735;52.060;1.248;2024-01-15T05:25:40;100397.14;;;-3.30;56.47
63306;BME280;50735;52.060;1.248;2024-01-15T05:28:12;100399.17;;;-3.33;56.27
63306;BME280;50735;52.060;1.248;2024-01-15T05:30:44;100398.43;;;-3.14;56.25
63306;BME280;50735;52.060;1.248;2024-01-15T05:33:16;100400.45;;;-3.21;56.36
63306;BME280;50735;52.060;1.248;2024-01-15T05:35:48;100398.86;;;-3.22;55.93
63306;BME280;50735;52.060;1.248;2024-01-15T05:38:20;100395.49;;;-3.16;56.61
63306;BME280;50735;52.060;1.248;2024-01-15T05:40:52;100390.16;;;-3.37;56.12
63306;BME280;50735;52.060;1.248;2024-01-15T05:43:24;100393.88;;;-3.49;56.41
63306;BME280;50735;52.060;1.248;2024-01-15T05:45:56;100391.37;;;-3.39;56.21
63306;BME280;50735;52.060;1.248;2024-01-15T05:48:28;100395.75;;;-3.49;56.23
63306;BME280;50735;52.060;1.248;2024-01-15T05:51:00;100394.39;;;-3.58;56.50
63306;BME280;50735;52.060;1.248;2024-01-15T05:53:32;100392.97;;;-3.60;56.29
63306;BME280;50735;52.060;1.248;2024-01-15T05:56:05;100394.41;;;-3.33;56.23
63306;BME280;50735;52.060;1.248;2024-01-15T05:58:37;100390.89;;;-3.59;56.59
63306;BME280;50735;52.060;1.248;2024-01-15T06:01:09;100395.24;;;-3.62;56.49
63306;BME280;50735;52.060;1.248;2024-01-15T06:03:41;100397.92;;;-3.48;56.22
63306;BME280;50735;52.060;1.248;2024-01-15T06:06:14;100395.38;;;-3.57;56.60
63306;BME280;50735;52.060;1.248;2024-01-15T06:08:46;100398.57;;;-3.61;56.09
63306;BME280;50735;52.060;1.248;2024-01-15T06:11:18;100397.18;;;-3.50;56.54
63306;BME280;50735;52.060;1.248;2024-01-15T06:13:50;100396.83;;;-3.62;56.48
63306;BME280;50735;52.060;1.248;2024-01-15T06:16:23;100399.24;;;-3.65;56.15
63306;BME280;50735;52.060;1.248;2024-01-15T06:18:56;100394.27;;;-3.76;56.34
63306;BME280;50735;52.060;1.248;2024-01-15T06:21:28;100398.16;;;-3.52;56.59
63306;BME280;50735;52.060;1.248;2024-01-15T06:24:00;100392.18;;;-3.22;56.20
63306;BME280;50735;52.060;1.248;2024-01-15T06:26:32;100396.52;;;-3.57;55.91
63306;BME280;50735;52.060;1.248;2024-01-15T06:29:04;100395.50;;;-3.40;55.77
63306;BME280;50735;52.060;1.248;2024-01-15T06:31:36;100391.32;;;-3.55;56.09
63306;BME280;50735;52.060;1.248;2024-01-15T06:34:08;100396.74;;;-3.49;55.67
63306;BME280;50735;52.060;1.248;2024-01-15T06:36:40;100402.30;;;-3.72;55.73
63306;BME280;50735;52.060;1.248;2024-01-15T06:39:12;100408.34;;;-3.76;56.11
63306;BME280;50735;52.060;1.248;2024-01-15T06:41:44;100405.52;;;-3.59;55.92
63306;BME280;50735;52.060;1.248;2024-01-15T06:44:16;100396.94;;;-3.50;56.03
63306;BME280;50735;52.060;1.248;2024-01-15T06:46:48;100399.74;;;-3.81;55.60
63306;BME280;50735;52.060;1.248;2024-01-15T06:49:20;100403.14;;;-3.82;55.88
63306;BME280;50735;52.060;1.248;2024-01-15T06:51:52;100410.86;;;-3.53;56.97
63306;BME280;50735;52.060;1.248;2024-01-15T06:54:24;100409.47;;;-3.43;56.21
63306;BME280;50735;52.060;1.248;2024-01-15T06:56:56;100418.85;;;-3.51;55.24
63306;BME280;50735;52.060;1.248;2024-01-15T06:59:29;100423.74;;;-3.66;55.63
63306;BME280;50735;52.060;1.248;2024-01-15T07:02:01;100428.17;;;-3.57;55.63
63306;BME280;50735;52.060;1.248;2024-01-15T07:04:33;100428.88;;;-3.65;55.60
63306;BME280;50735;52.060;1.248;2024-01-15T07:07:05;100429.39;;;-3.60;55.36
63306;BME280;50735;52.060;1.248;2024-01-15T07:09:37;100427.44;;;-3.79;55.38
63306;BME280;50735;52.060;1.248;2024-01-15T07:12:09;100423.58;;;-3.86;55.50
63306;BME280;50735;52.060;1.248;2024-01-15T07:14:41;100418.82;;;-4.10;55.57
63306;BME280;50735;52.060;1.248;2024-01-15T07:17:13;100415.78;;;-3.83;55.59
63306;BME280;50735;52.060;1.248;2024-01-15T07:19:45;100416.53;;;-3.90;55.44
63306;BME280;50735;52.060;1.248;2024-01-15T07:22:17;100420.54;;;-3.56;55.40
63306;BME280;50735;52.060;1.248;2024-01-15T07:24:49;100417.96;;;-3.98;55.22
63306;BME280;50735;52.060;1.248;2024-01-15T07:27:21;100413.56;;;-3.70;55.34
63306;BME280;50735;52.060;1.248;2024-01-15T07:29:53;100411.24;;;-3.77;54.89
63306;BME280;50735;52.060;1.248;2024-01-15T07:32:25;100417.39;;;-3.75;55.28
63306;BME280;50735;52.060;1.248;2024-01-15T07:34:57;100420.83;;;-3.85;55.35
63306;BME280;50735;52.060;1.248;2024-01-15T07:37:29;100423.28;;;-3.82;55.07
63306;BME280;50735;52.060;1.248;2024-01-15T07:40:01;100417.76;;;-3.58;54.96
63306;BME280;50735;52.060;1.248;2024-01-15T07:42:34;100423.08;;;-3.78;55.10
63306;BME280;50735;52.060;1.248;2024-01-15T07:45:06;100424.75;;;-3.88;55.88
63306;BME280;50735;52.060;1.248;2024-01-15T07:47:38;100424.28;;;-3.82;55.05
63306;BME280;50735;52.060;1.248;2024-01-15T07:50:10;100423.62;;;-4.00;55.10
63306;BME280;50735;52.060;1.248;2024-01-15T07:52:42;100421.69;;;-3.99;54.83
63306;BME280;50735;52.060;1.248;2024-01-15T07:55:14;100420.88;;;-3.46;54.81
63306;BME280;50735;52.060;1.248;2024-01-15T07:57:46;100418.11;;;-3.69;54.59
63306;BME280;50735;52.060;1.248;2024-01-15T08:00:18;100422.47;;;-3.43;54.38
63306;BME280;50735;52.060;1.248;2024-01-15T08:02:50;100427.97;;;-3.71;54.47
63306;BME280;50735;52.060;1.248;2024-01-15T08:05:22;100428.02;;;-3.71;54.61
63306;BME280;50735;52.060;1.248;2024-01-15T08:07:54;100430.93;;;-4.31;55.41
63306;BME280;50735;52.060;1.248;2024-01-15T08:10:26;100441.54;;;-4.36;55.98
63306;BME280;50735;52.060;1.248;2024-01-15T08:12:58;100448.66;;;-4.28;55.49
63306;BME280;50735;52.060;1.248;2024-01-15T08:15:30;100447.88;;;-4.70;56.61
63306;BME280;50735;52.060;1.248;2024-01-15T08:18:02;100445.48;;;-4.69;56.74
63306;BME280;50735;52.060;1.248;2024-01-15T08:20:34;100441.03;;;-4.98;57.33
63306;BME280;50735;52.060;1.248;2024-01-15T08:23:06;100441.27;;;-4.81;56.92
63306;BME280;50735;52.060;1.248;2024-01-15T08:25:39;100437.02;;;-4.63;57.38
63306;BME280;50735;52.060;1.248;2024-01-15T08:28:11;100436.14;;;-4.71;57.29
63306;BME280;50735;52.060;1.248;2024-01-15T08:30:43;100442.84;;;-4.63;56.97
63306;BME280;50735;52.060;1.248;2024-01-15T08:33:15;100448.97;;;-4.44;56.74
63306;BME280;50735;52.060;1.248;2024-01-15T08:35:47;100448.92;;;-4.21;56.76
63306;BME280;50735;52.060;1.248;2024-01-15T08:38:19;100450.15;;;-4.33;56.54
63306;BME280;50735;52.060;1.248;2024-01-15T08:40:51;100452.82;;;-3.88;55.72
63306;BME280;50735;52.060;1.248;2024-01-15T08:43:23;100460.80;;;-3.45;54.65
63306;BME280;50735;52.060;1.248;2024-01-15T08:45:55;100462.44;;;-3.93;54.07
63306;BME280;50735;52.060;1.248;2024-01-15T08:48:27;100457.28;;;-3.59;53.47
63306;BME280;50735;52.060;1.248;2024-01-15T08:50:59;100461.50;;;-3.15;52.91
63306;BME280;50735;52.060;1.248;2024-01-15T08:53:31;100468.61;;;-3.17;52.67
63306;BME280;50735;52.060;1.248;2024-01-15T08:56:04;100475.75;;;-2.97;52.23
63306;BME280;50735;52.060;1.248;2024-01-15T08:58:35;100486.80;;;-3.18;52.73
63306;BME280;50735;52.060;1.248;2024-01-15T09:01:07;100489.31;;;-3.17;51.51
63306;BME280;50735;52.060;1.248;2024-01-15T09:03:40;100497.27;;;-3.10;52.18
63306;BME280;50735;52.060;1.248;2024-01-15T09:06:12;100494.97;;;-2.69;51.07
63306;BME280;50735;52.060;1.248;2024-01-15T09:08:44;100494.50;;;-2.86;51.28
63306;BME280;50735;52.060;1.248;2024-01-15T09:11:16;100498.48;;;-2.99;50.49
63306;BME280;50735;52.060;1.248;2024-01-15T09:13:48;100493.46;;;-1.80;48.34
63306;BME280;50735;52.060;1.248;2024-01-15T09:16:20;100494.57;;;-1.52;48.20
63306;BME280;50735;52.060;1.248;2024-01-15T09:18:53;100498.30;;;-1.86;47.36
63306;BME280;50735;52.060;1.248;2024-01-15T09:21:25;100494.40;;;-1.31;46.43
63306;BME280;50735;52.060;1.248;2024-01-15T09:23:57;100492.85;;;-1.54;46.74
63306;BME280;50735;52.060;1.248;2024-01-15T09:26:29;100498.89;;;-2.04;47.54
63306;BME280;50735;52.060;1.248;2024-01-15T09:29:01;100493.74;;;-1.28;46.50
63306;BME280;50735;52.060;1.248;2024-01-15T09:31:32;100493.29;;;-1.40;46.70
63306;BME280;50735;52.060;1.248;2024-01-15T09:34:04;100490.77;;;-1.24;46.61
63306;BME280;50735;52.060;1.248;2024-01-15T09:36:39;100495.89;;;-1.07;45.98
63306;BME280;50735;52.060;1.248;2024-01-15T09:39:11;100496.77;;;-1.22;46.18
63306;BME280;50735;52.060;1.248;2024-01-15T09:41:43;100499.03;;;-1.23;46.35
63306;BME280;50735;52.060;1.248;2024-01-15T09:44:16;100500.04;;;-1.64;46.33
63306;BME280;50735;52.060;1.248;2024-01-15T09:46:49;100496.05;;;-0.83;45.72
63306;BME280;50735;52.060;1.248;2024-01-15T09:49:22;100498.96;;;-1.20;45.53
63306;BME280;50735;52.060;1.248;2024-01-15T09:51:55;100501.08;;;-1.36;46.15
63306;BME280;50735;52.060;1.248;2024-01-15T09:54:27;100501.17;;;-1.31;46.39
63306;BME280;50735;52.060;1.248;2024-01-15T09:57:00;100499.82;;;-0.86;45.77
63306;BME280;50735;52.060;1.248;2024-01-15T09:59:32;100497.59;;;-0.62;45.06
63306;BME280;50735;52.060;1.248;2024-01-15T10:02:07;100500.39;;;-0.32;44.04
63306;BME280;50735;52.060;1.248;2024-01-15T10:04:39;100507.99;;;-0.40;44.07
63306;BME280;50735;52.060;1.248;2024-01-15T10:07:15;100509.60;;;0.11;44.24
63306;BME280;50735;52.060;1.248;2024-01-15T10:09:47;100511.25;;;-0.30;44.24
63306;BME280;50735;52.060;1.248;2024-01-15T10:12:20;100520.32;;;0.03;44.32
63306;BME280;50735;52.060;1.248;2024-01-15T10:14:53;100530.28;;;-0.38;44.03
63306;BME280;50735;52.060;1.248;2024-01-15T10:17:25;100533.67;;;-0.11;43.89
63306;BME280;50735;52.060;1.248;2024-01-15T10:19:57;100536.45;;;-0.08;44.14
63306;BME280;50735;52.060;1.248;2024-01-15T10:22:29;100536.14;;;-0.57;44.21
63306;BME280;50735;52.060;1.248;2024-01-15T10:25:01;100537.53;;;0.09;43.51
63306;BME280;50735;52.060;1.248;2024-01-15T10:27:34;100536.05;;;0.91;43.10
63306;BME280;50735;52.060;1.248;2024-01-15T10:30:07;100539.18;;;0.58;42.40
63306;BME280;50735;52.060;1.248;2024-01-15T10:32:39;100541.57;;;0.13;42.58
63306;BME280;50735;52.060;1.248;2024-01-15T10:35:11;100543.61;;;0.82;41.97
63306;BME280;50735;52.060;1.248;2024-01-15T10:37:43;100546.72;;;1.14;41.64
63306;BME280;50735;52.060;1.248;2024-01-15T10:40:15;100550.99;;;0.58;41.86
63306;BME280;50735;52.060;1.248;2024-01-15T10:42:47;100549.21;;;0.07;42.88
63306;BME280;50735;52.060;1.248;2024-01-15T10:45:19;100546.72;;;0.47;42.53
63306;BME280;50735;52.060;1.248;2024-01-15T10:47:51;100548.76;;;0.99;41.53
63306;BME280;50735;52.060;1.248;2024-01-15T10:50:23;100548.43;;;0.64;41.73
63306;BME280;50735;52.060;1.248;2024-01-15T10:52:56;100548.33;;;1.03;41.35
63306;BME280;50735;52.060;1.248;2024-01-15T10:55:28;100553.85;;;1.20;41.19
63306;BME280;50735;52.060;1.248;2024-01-15T10:58:01;100551.35;;;1.10;41.89
63306;BME280;50735;52.060;1.248;2024-01-15T11:00:35;100552.79;;;1.52;40.87
63306;BME280;50735;52.060;1.248;2024-01-15T11:03:07;100559.47;;;1.29;40.66
63306;BME280;50735;52.060;1.248;2024-01-15T11:05:42;100558.44;;;1.06;41.00
63306;BME280;50735;52.060;1.248;2024-01-15T11:08:17;100561.36;;;1.33;40.68
63306;BME280;50735;52.060;1.248;2024-01-15T11:10:51;100563.96;;;1.56;40.28
63306;BME280;50735;52.060;1.248;2024-01-15T11:13:40;100577.62;;;1.48;40.54
63306;BME280;50735;52.060;1.248;2024-01-15T11:16:13;100580.77;;;1.94;39.86
63306;BME280;50735;52.060;1.248;2024-01-15T11:19:02;100584.04;;;1.90;39.46
63306;BME280;50735;52.060;1.248;2024-01-15T11:21:42;100582.73;;;2.68;40.46
63306;BME280;50735;52.060;1.248;2024-01-15T11:24:34;100587.17;;;2.33;38.93
63306;BME280;50735;52.060;1.248;2024-01-15T11:27:06;100589.82;;;3.20;38.14
63306;BME280;50735;52.060;1.248;2024-01-15T11:29:38;100595.97;;;1.89;39.25
63306;BME280;50735;52.060;1.248;2024-01-15T11:32:10;100589.33;;;2.21;39.10
63306;BME280;50735;52.060;1.248;2024-01-15T11:34:58;100593.17;;;2.30;39.31
63306;BME280;50735;52.060;1.248;2024-01-15T11:37:56;100589.07;;;1.77;39.29
63306;BME280;50735;52.060;1.248;2024-01-15T11:40:38;100586.78;;;2.24;40.74
63306;BME280;50735;52.060;1.248;2024-01-15T11:43:10;100589.07;;;2.33;38.76
63306;BME280;50735;52.060;1.248;2024-01-15T11:45:42;100583.11;;;1.37;39.29
63306;BME280;50735;52.060;1.248;2024-01-15T11:48:14;100592.91;;;1.95;39.14
63306;BME280;50735;52.060;1.248;2024-01-15T11:50:48;100593.23;;;1.40;40.58
63306;BME280;50735;52.060;1.248;2024-01-15T11:53:27;100590.10;;;1.84;39.89
63306;BME280;50735;52.060;1.248;2024-01-15T11:56:09;100597.30;;;2.66;38.81
63306;BME280;50735;52.060;1.248;2024-01-15T11:58:43;100602.14;;;1.18;40.32
63306;BME280;50735;52.060;1.248;2024-01-15T12:01:15;100603.69;;;1.92;39.78
63306;BME280;50735;52.060;1.248;2024-01-15T12:03:47;100600.85;;;2.32;39.47
63306;BME280;50735;52.060;1.248;2024-01-15T12:06:19;100603.70;;;2.42;39.33
63306;BME280;50735;52.060;1.248;2024-01-15T12:08:51;100602.75;;;2.36;39.00
63306;BME280;50735;52.060;1.248;2024-01-15T12:11:38;100607.29;;;2.57;38.67
63306;BME280;50735;52.060;1.248;2024-01-15T12:14:13;100601.99;;;2.90;38.25
63306;BME280;50735;52.060;1.248;2024-01-15T12:16:45;100606.10;;;2.14;38.90
63306;BME280;50735;52.060;1.248;2024-01-15T12:19:17;100607.40;;;2.89;38.43
63306;BME280;50735;52.060;1.248;2024-01-15T12:21:50;100603.19;;;3.34;37.40
63306;BME280;50735;52.060;1.248;2024-01-15T12:24:22;100607.51;;;2.26;38.48
63306;BME280;50735;52.060;1.248;2024-01-15T12:26:54;100606.06;;;2.11;38.90
63306;BME280;50735;52.060;1.248;2024-01-15T12:29:26;100612.96;;;2.21;38.60
63306;BME280;50735;52.060;1.248;2024-01-15T12:31:58;100603.50;;;2.78;38.59
63306;BME280;50735;52.060;1.248;2024-01-15T12:34:30;100603.34;;;2.57;37.95
63306;BME280;50735;52.060;1.248;2024-01-15T12:37:02;100611.23;;;3.12;37.83
63306;BME280;50735;52.060;1.248;2024-01-15T12:39:34;100620.83;;;2.96;38.11
63306;BME280;50735;52.060;1.248;2024-01-15T12:42:05;100619.05;;;2.39;38.53
63306;BME280;50735;52.060;1.248;2024-01-15T12:44:37;100623.92;;;2.75;38.46
63306;BME280;50735;52.060;1.248;2024-01-15T12:47:09;100628.52;;;2.15;38.82
63306;BME280;50735;52.060;1.248;2024-01-15T12:49:41;100631.39;;;2.26;39.07
63306;BME280;50735;52.060;1.248;2024-01-15T12:52:13;100632.57;;;2.54;38.91
63306;BME280;50735;52.060;1.248;2024-01-15T12:54:45;100630.54;;;2.59;38.81
63306;BME280;50735;52.060;1.248;2024-01-15T12:57:17;100632.07;;;2.85;38.26
63306;BME280;50735;52.060;1.248;2024-01-15T12:59:49;100631.33;;;2.89;37.80
63306;BME280;50735;52.060;1.248;2024-01-15T13:02:21;100631.77;;;3.00;37.77
63306;BME280;50735;52.060;1.248;2024-01-15T13:04:54;100638.17;;;2.61;37.63
63306;BME280;50735;52.060;1.248;2024-01-15T13:07:27;100631.96;;;3.27;37.07
63306;BME280;50735;52.060;1.248;2024-01-15T13:09:59;100628.69;;;2.60;37.61
63306;BME280;50735;52.060;1.248;2024-01-15T13:12:31;100629.43;;;2.66;37.97
63306;BME280;50735;52.060;1.248;2024-01-15T13:15:03;100633.74;;;2.72;37.97
63306;BME280;50735;52.060;1.248;2024-01-15T13:17:35;100639.82;;;3.22;37.48
63306;BME280;50735;52.060;1.248;2024-01-15T13:20:08;100643.01;;;2.77;37.22